sensor_id;sensor_type;location;lat;lon;timestamp;P1;durP1;ratioP1;P2;durP2;ratioP2
8177;SDS011;4130;48.740;9.132;2022-07-23T00:01:12;4.10;;;3.70;;
8177;SDS011;4130;48.740;9.132;2022-07-23T00:03:40;3.67;;;3.38;;
8177;SDS011;4130;48.740;9.132;2022-07-23T00:06:07;3.80;;;3.47;;
8177;SDS011;4130;48.740;9.132;2022-07-23T00:08:34;3.60;;;3.30;;
8177;SDS011;4130;48.740;9.132;2022-07-23T00:11:01;3.65;;;3.35;;
8177;SDS011;4130;48.740;9.132;2022-07-23T00:13:28;4.53;;;3.10;;
8177;SDS011;4130;48.740;9.132;2022-07-23T00:15:55;3.25;;;3.05;;
8177;SDS011;4130;48.740;9.132;2022-07-23T00:18:22;3.40;;;3.10;;
8177;SDS011;4130;48.740;9.132;2022-07-23T00:20:50;3.50;;;3.20;;
8177;SDS011;4130;48.740;9.132;2022-07-23T00:23:17;4.80;;;3.30;;
8177;SDS011;4130;48.740;9.132;2022-07-23T00:25:44;3.40;;;3.10;;
8177;SDS011;4130;48.740;9.132;2022-07-23T00:28:11;3.47;;;3.15;;
8177;SDS011;4130;48.740;9.132;2022-07-23T00:30:38;3.33;;;3.03;;
8177;SDS011;4130;48.740;9.132;2022-07-23T00:33:05;3.60;;;2.92;;
8177;SDS011;4130;48.740;9.132;2022-07-23T00:35:34;3.25;;;2.90;;
8177;SDS011;4130;48.740;9.132;2022-07-23T00:38:04;3.63;;;3.30;;
8177;SDS011;4130;48.740;9.132;2022-07-23T00:40:31;3.25;;;2.95;;
8177;SDS011;4130;48.740;9.132;2022-07-23T00:42:58;3.80;;;3.40;;
8177;SDS011;4130;48.740;9.132;2022-07-23T00:45:25;3.60;;;3.30;;
8177;SDS011;4130;48.740;9.132;2022-07-23T00:47:52;3.40;;;3.10;;
8177;SDS011;4130;48.740;9.132;2022-07-23T00:50:18;3.30;;;3.00;;
8177;SDS011;4130;48.740;9.132;2022-07-23T00:52:45;3.60;;;3.30;;
8177;SDS011;4130;48.740;9.132;2022-07-23T00:55:14;4.15;;;3.45;;
8177;SDS011;4130;48.740;9.132;2022-07-23T00:57:41;3.97;;;3.20;;
8177;SDS011;4130;48.740;9.132;2022-07-23T01:00:09;3.55;;;3.25;;
8177;SDS011;4130;48.740;9.132;2022-07-23T01:02:38;3.50;;;3.20;;
8177;SDS011;4130;48.740;9.132;2022-07-23T01:05:06;4.20;;;3.80;;
8177;SDS011;4130;48.740;9.132;2022-07-23T01:07:34;3.67;;;3.40;;
8177;SDS011;4130;48.740;9.132;2022-07-23T01:10:02;2.92;;;2.70;;
8177;SDS011;4130;48.740;9.132;2022-07-23T01:12:31;3.45;;;2.95;;
8177;SDS011;4130;48.740;9.132;2022-07-23T01:14:58;4.32;;;3.40;;
8177;SDS011;4130;48.740;9.132;2022-07-23T01:17:26;3.55;;;3.05;;
8177;SDS011;4130;48.740;9.132;2022-07-23T01:19:53;3.33;;;3.03;;
8177;SDS011;4130;48.740;9.132;2022-07-23T01:22:20;3.40;;;3.10;;
8177;SDS011;4130;48.740;9.132;2022-07-23T01:24:48;3.00;;;2.80;;
8177;SDS011;4130;48.740;9.132;2022-07-23T01:27:15;3.50;;;3.20;;
8177;SDS011;4130;48.740;9.132;2022-07-23T01:29:44;3.13;;;2.80;;
8177;SDS011;4130;48.740;9.132;2022-07-23T01:32:11;4.50;;;3.08;;
8177;SDS011;4130;48.740;9.132;2022-07-23T01:34:38;3.53;;;3.22;;
8177;SDS011;4130;48.740;9.132;2022-07-23T01:37:05;2.97;;;2.75;;
8177;SDS011;4130;48.740;9.132;2022-07-23T01:39:32;3.55;;;3.15;;
8177;SDS011;4130;48.740;9.132;2022-07-23T01:42:00;3.60;;;3.30;;
8177;SDS011;4130;48.740;9.132;2022-07-23T01:44:27;3.72;;;3.22;;
8177;SDS011;4130;48.740;9.132;2022-07-23T01:46:55;3.50;;;3.20;;
8177;SDS011;4130;48.740;9.132;2022-07-23T01:49:21;3.80;;;3.50;;
8177;SDS011;4130;48.740;9.132;2022-07-23T01:51:48;3.17;;;2.88;;
8177;SDS011;4130;48.740;9.132;2022-07-23T01:54:32;4.13;;;2.97;;
8177;SDS011;4130;48.740;9.132;2022-07-23T01:57:01;3.30;;;3.00;;
8177;SDS011;4130;48.740;9.132;2022-07-23T01:59:28;4.15;;;3.40;;
8177;SDS011;4130;48.740;9.132;2022-07-23T02:01:55;3.30;;;3.00;;
8177;SDS011;4130;48.740;9.132;2022-07-23T02:04:22;4.50;;;3.15;;
8177;SDS011;4130;48.740;9.132;2022-07-23T02:06:50;3.78;;;3.10;;
8177;SDS011;4130;48.740;9.132;2022-07-23T02:09:18;3.63;;;3.30;;
8177;SDS011;4130;48.740;9.132;2022-07-23T02:11:45;3.35;;;3.00;;
8177;SDS011;4130;48.740;9.132;2022-07-23T02:14:13;4.25;;;3.25;;
8177;SDS011;4130;48.740;9.132;2022-07-23T02:16:40;4.55;;;3.65;;
8177;SDS011;4130;48.740;9.132;2022-07-23T02:19:07;3.45;;;3.10;;
8177;SDS011;4130;48.740;9.132;2022-07-23T02:21:33;2.88;;;2.67;;
8177;SDS011;4130;48.740;9.132;2022-07-23T02:24:00;3.85;;;3.55;;
8177;SDS011;4130;48.740;9.132;2022-07-23T02:26:27;3.33;;;3.03;;
8177;SDS011;4130;48.740;9.132;2022-07-23T02:28:54;3.35;;;3.05;;
8177;SDS011;4130;48.740;9.132;2022-07-23T02:31:22;4.80;;;3.20;;
8177;SDS011;4130;48.740;9.132;2022-07-23T02:33:49;3.05;;;2.80;;
8177;SDS011;4130;48.740;9.132;2022-07-23T02:36:16;4.50;;;3.00;;
8177;SDS011;4130;48.740;9.132;2022-07-23T02:38:42;4.47;;;4.07;;
8177;SDS011;4130;48.740;9.132;2022-07-23T02:41:09;3.72;;;3.40;;
8177;SDS011;4130;48.740;9.132;2022-07-23T02:43:36;3.35;;;3.08;;
8177;SDS011;4130;48.740;9.132;2022-07-23T02:46:03;3.70;;;3.40;;
8177;SDS011;4130;48.740;9.132;2022-07-23T02:48:31;3.35;;;3.10;;
8177;SDS011;4130;48.740;9.132;2022-07-23T02:50:58;3.63;;;3.30;;
8177;SDS011;4130;48.740;9.132;2022-07-23T02:53:25;3.78;;;3.20;;
8177;SDS011;4130;48.740;9.132;2022-07-23T02:55:52;3.70;;;3.40;;
8177;SDS011;4130;48.740;9.132;2022-07-23T02:58:19;3.28;;;2.97;;
8177;SDS011;4130;48.740;9.132;2022-07-23T03:00:46;3.80;;;2.97;;
8177;SDS011;4130;48.740;9.132;2022-07-23T03:03:13;3.45;;;3.15;;
8177;SDS011;4130;48.740;9.132;2022-07-23T03:05:41;3.67;;;3.38;;
8177;SDS011;4130;48.740;9.132;2022-07-23T03:08:08;3.97;;;3.60;;
8177;SDS011;4130;48.740;9.132;2022-07-23T03:10:35;4.90;;;3.47;;
8177;SDS011;4130;48.740;9.132;2022-07-23T03:13:01;3.30;;;3.00;;
8177;SDS011;4130;48.740;9.132;2022-07-23T03:15:28;3.40;;;3.10;;
8177;SDS011;4130;48.740;9.132;2022-07-23T03:17:55;3.53;;;3.10;;
8177;SDS011;4130;48.740;9.132;2022-07-23T03:20:22;3.60;;;3.30;;
8177;SDS011;4130;48.740;9.132;2022-07-23T03:22:50;3.95;;;3.58;;
8177;SDS011;4130;48.740;9.132;2022-07-23T03:25:17;3.47;;;3.13;;
8177;SDS011;4130;48.740;9.132;2022-07-23T03:27:44;5.07;;;3.50;;
8177;SDS011;4130;48.740;9.132;2022-07-23T03:30:11;4.00;;;3.70;;
8177;SDS011;4130;48.740;9.132;2022-07-23T03:32:38;3.20;;;3.00;;
8177;SDS011;4130;48.740;9.132;2022-07-23T03:35:05;3.60;;;3.30;;
8177;SDS011;4130;48.740;9.132;2022-07-23T03:37:32;3.90;;;3.55;;
8177;SDS011;4130;48.740;9.132;2022-07-23T03:40:01;4.00;;;3.60;;
8177;SDS011;4130;48.740;9.132;2022-07-23T03:42:28;4.30;;;3.58;;
8177;SDS011;4130;48.740;9.132;2022-07-23T03:44:55;3.75;;;3.30;;
8177;SDS011;4130;48.740;9.132;2022-07-23T03:47:22;3.92;;;3.53;;
8177;SDS011;4130;48.740;9.132;2022-07-23T03:49:48;4.00;;;3.60;;
8177;SDS011;4130;48.740;9.132;2022-07-23T03:52:15;4.03;;;3.63;;
8177;SDS011;4130;48.740;9.132;2022-07-23T03:54:42;5.63;;;3.80;;
8177;SDS011;4130;48.740;9.132;2022-07-23T03:57:10;4.10;;;3.70;;
8177;SDS011;4130;48.740;9.132;2022-07-23T03:59:37;4.03;;;3.67;;
8177;SDS011;4130;48.740;9.132;2022-07-23T04:02:04;4.13;;;3.70;;
8177;SDS011;4130;48.740;9.132;2022-07-23T04:04:31;3.88;;;3.55;;
8177;SDS011;4130;48.740;9.132;2022-07-23T04:06:57;3.75;;;3.45;;
8177;SDS011;4130;48.740;9.132;2022-07-23T04:09:24;3.80;;;3.50;;
8177;SDS011;4130;48.740;9.132;2022-07-23T04:11:51;3.95;;;3.50;;
8177;SDS011;4130;48.740;9.132;2022-07-23T04:14:19;4.70;;;3.67;;
8177;SDS011;4130;48.740;9.132;2022-07-23T04:16:46;3.78;;;3.35;;
8177;SDS011;4130;48.740;9.132;2022-07-23T04:19:13;3.42;;;3.05;;
8177;SDS011;4130;48.740;9.132;2022-07-23T04:21:39;3.90;;;3.55;;
8177;SDS011;4130;48.740;9.132;2022-07-23T04:24:06;3.30;;;3.10;;
8177;SDS011;4130;48.740;9.132;2022-07-23T04:26:33;4.18;;;3.83;;
8177;SDS011;4130;48.740;9.132;2022-07-23T04:29:00;4.10;;;3.53;;
8177;SDS011;4130;48.740;9.132;2022-07-23T04:31:28;5.63;;;3.70;;
8177;SDS011;4130;48.740;9.132;2022-07-23T04:33:55;3.67;;;3.10;;
8177;SDS011;4130;48.740;9.132;2022-07-23T04:36:22;4.95;;;3.50;;
8177;SDS011;4130;48.740;9.132;2022-07-23T04:38:49;3.72;;;3.40;;
8177;SDS011;4130;48.740;9.132;2022-07-23T04:41:16;4.45;;;4.05;;
8177;SDS011;4130;48.740;9.132;2022-07-23T04:43:42;5.88;;;3.67;;
8177;SDS011;4130;48.740;9.132;2022-07-23T04:46:09;4.07;;;3.55;;
8177;SDS011;4130;48.740;9.132;2022-07-23T04:48:38;3.92;;;3.60;;
8177;SDS011;4130;48.740;9.132;2022-07-23T04:51:07;5.00;;;3.60;;
8177;SDS011;4130;48.740;9.132;2022-07-23T04:53:34;5.70;;;3.47;;
8177;SDS011;4130;48.740;9.132;2022-07-23T04:56:02;4.85;;;3.53;;
8177;SDS011;4130;48.740;9.132;2022-07-23T04:58:30;7.38;;;3.63;;
8177;SDS011;4130;48.740;9.132;2022-07-23T05:00:57;4.57;;;3.33;;
8177;SDS011;4130;48.740;9.132;2022-07-23T05:03:24;4.00;;;3.60;;
8177;SDS011;4130;48.740;9.132;2022-07-23T05:05:52;3.92;;;3.60;;
8177;SDS011;4130;48.740;9.132;2022-07-23T05:08:19;3.58;;;3.28;;
8177;SDS011;4130;48.740;9.132;2022-07-23T05:10:46;4.70;;;3.65;;
8177;SDS011;4130;48.740;9.132;2022-07-23T05:13:14;5.72;;;3.55;;
8177;SDS011;4130;48.740;9.132;2022-07-23T05:15:40;5.10;;;3.85;;
8177;SDS011;4130;48.740;9.132;2022-07-23T05:18:07;5.53;;;3.33;;
8177;SDS011;4130;48.740;9.132;2022-07-23T05:20:34;4.05;;;3.65;;
8177;SDS011;4130;48.740;9.132;2022-07-23T05:23:03;7.63;;;3.83;;
8177;SDS011;4130;48.740;9.132;2022-07-23T05:25:30;5.35;;;4.25;;
8177;SDS011;4130;48.740;9.132;2022-07-23T05:27:57;4.28;;;3.88;;
8177;SDS011;4130;48.740;9.132;2022-07-23T05:30:23;4.00;;;3.60;;
8177;SDS011;4130;48.740;9.132;2022-07-23T05:32:50;3.88;;;3.58;;
8177;SDS011;4130;48.740;9.132;2022-07-23T05:35:20;4.50;;;4.03;;
8177;SDS011;4130;48.740;9.132;2022-07-23T05:37:47;4.30;;;3.65;;
8177;SDS011;4130;48.740;9.132;2022-07-23T05:40:15;4.10;;;3.70;;
8177;SDS011;4130;48.740;9.132;2022-07-23T05:42:42;4.25;;;3.80;;
8177;SDS011;4130;48.740;9.132;2022-07-23T05:45:09;4.38;;;3.92;;
8177;SDS011;4130;48.740;9.132;2022-07-23T05:47:40;4.57;;;3.75;;
8177;SDS011;4130;48.740;9.132;2022-07-23T05:50:08;4.45;;;4.00;;
8177;SDS011;4130;48.740;9.132;2022-07-23T05:52:35;8.80;;;4.00;;
8177;SDS011;4130;48.740;9.132;2022-07-23T05:55:02;3.80;;;3.50;;
8177;SDS011;4130;48.740;9.132;2022-07-23T05:57:31;4.22;;;3.83;;
8177;SDS011;4130;48.740;9.132;2022-07-23T05:59:57;4.07;;;3.63;;
8177;SDS011;4130;48.740;9.132;2022-07-23T06:02:24;3.88;;;3.58;;
8177;SDS011;4130;48.740;9.132;2022-07-23T06:04:51;4.20;;;3.85;;
8177;SDS011;4130;48.740;9.132;2022-07-23T06:07:18;4.40;;;4.00;;
8177;SDS011;4130;48.740;9.132;2022-07-23T06:09:45;5.00;;;4.18;;
8177;SDS011;4130;48.740;9.132;2022-07-23T06:12:12;4.55;;;3.92;;
8177;SDS011;4130;48.740;9.132;2022-07-23T06:14:40;5.38;;;4.00;;
8177;SDS011;4130;48.740;9.132;2022-07-23T06:17:07;4.15;;;3.75;;
8177;SDS011;4130;48.740;9.132;2022-07-23T06:19:34;8.57;;;4.10;;
8177;SDS011;4130;48.740;9.132;2022-07-23T06:22:01;4.25;;;3.85;;
8177;SDS011;4130;48.740;9.132;2022-07-23T06:24:28;4.63;;;3.97;;
8177;SDS011;4130;48.740;9.132;2022-07-23T06:26:54;4.40;;;4.00;;
8177;SDS011;4130;48.740;9.132;2022-07-23T06:29:21;4.50;;;4.10;;
8177;SDS011;4130;48.740;9.132;2022-07-23T06:31:49;5.15;;;4.25;;
8177;SDS011;4130;48.740;9.132;2022-07-23T06:34:16;5.63;;;4.05;;
8177;SDS011;4130;48.740;9.132;2022-07-23T06:36:43;5.32;;;3.65;;
8177;SDS011;4130;48.740;9.132;2022-07-23T06:39:10;4.78;;;3.72;;
8177;SDS011;4130;48.740;9.132;2022-07-23T06:41:37;3.95;;;3.53;;
8177;SDS011;4130;48.740;9.132;2022-07-23T06:44:04;5.43;;;3.92;;
8177;SDS011;4130;48.740;9.132;2022-07-23T06:46:31;4.93;;;3.47;;
8177;SDS011;4130;48.740;9.132;2022-07-23T06:48:59;4.97;;;4.00;;
8177;SDS011;4130;48.740;9.132;2022-07-23T06:51:26;4.38;;;3.95;;
8177;SDS011;4130;48.740;9.132;2022-07-23T06:53:53;4.15;;;3.40;;
8177;SDS011;4130;48.740;9.132;2022-07-23T06:56:20;4.20;;;3.90;;
8177;SDS011;4130;48.740;9.132;2022-07-23T06:58:47;7.75;;;3.88;;
8177;SDS011;4130;48.740;9.132;2022-07-23T07:01:13;4.65;;;3.95;;
8177;SDS011;4130;48.740;9.132;2022-07-23T07:03:40;5.60;;;3.60;;
8177;SDS011;4130;48.740;9.132;2022-07-23T07:06:09;3.80;;;3.50;;
8177;SDS011;4130;48.740;9.132;2022-07-23T07:08:35;4.03;;;3.63;;
8177;SDS011;4130;48.740;9.132;2022-07-23T07:11:02;4.43;;;4.03;;
8177;SDS011;4130;48.740;9.132;2022-07-23T07:13:29;4.25;;;3.75;;
8177;SDS011;4130;48.740;9.132;2022-07-23T07:15:56;4.15;;;3.78;;
8177;SDS011;4130;48.740;9.132;2022-07-23T07:18:23;4.82;;;3.63;;
8177;SDS011;4130;48.740;9.132;2022-07-23T07:20:50;4.75;;;3.58;;
8177;SDS011;4130;48.740;9.132;2022-07-23T07:23:18;9.80;;;4.20;;
8177;SDS011;4130;48.740;9.132;2022-07-23T07:25:45;4.32;;;4.03;;
8177;SDS011;4130;48.740;9.132;2022-07-23T07:28:13;4.28;;;3.90;;
8177;SDS011;4130;48.740;9.132;2022-07-23T07:30:39;4.28;;;3.70;;
8177;SDS011;4130;48.740;9.132;2022-07-23T07:33:06;5.47;;;3.80;;
8177;SDS011;4130;48.740;9.132;2022-07-23T07:35:33;4.32;;;3.90;;
8177;SDS011;4130;48.740;9.132;2022-07-23T07:38:00;6.13;;;4.18;;
8177;SDS011;4130;48.740;9.132;2022-07-23T07:40:28;5.25;;;3.65;;
8177;SDS011;4130;48.740;9.132;2022-07-23T07:42:55;3.97;;;3.42;;
8177;SDS011;4130;48.740;9.132;2022-07-23T07:45:23;4.35;;;3.95;;
8177;SDS011;4130;48.740;9.132;2022-07-23T07:47:50;5.25;;;4.00;;
8177;SDS011;4130;48.740;9.132;2022-07-23T07:50:18;6.47;;;3.75;;
8177;SDS011;4130;48.740;9.132;2022-07-23T07:52:45;6.47;;;4.07;;
8177;SDS011;4130;48.740;9.132;2022-07-23T07:55:12;4.18;;;3.70;;
8177;SDS011;4130;48.740;9.132;2022-07-23T07:57:41;4.28;;;3.88;;
8177;SDS011;4130;48.740;9.132;2022-07-23T08:00:08;7.03;;;3.67;;
8177;SDS011;4130;48.740;9.132;2022-07-23T08:02:40;3.75;;;3.45;;
8177;SDS011;4130;48.740;9.132;2022-07-23T08:05:08;3.85;;;3.53;;
8177;SDS011;4130;48.740;9.132;2022-07-23T08:07:35;3.88;;;3.58;;
8177;SDS011;4130;48.740;9.132;2022-07-23T08:10:04;3.55;;;3.33;;
8177;SDS011;4130;48.740;9.132;2022-07-23T08:12:37;4.25;;;3.50;;
8177;SDS011;4130;48.740;9.132;2022-07-23T08:15:07;4.18;;;3.88;;
8177;SDS011;4130;48.740;9.132;2022-07-23T08:17:34;4.10;;;3.80;;
8177;SDS011;4130;48.740;9.132;2022-07-23T08:20:01;3.78;;;3.47;;
8177;SDS011;4130;48.740;9.132;2022-07-23T08:22:41;4.68;;;3.92;;
8177;SDS011;4130;48.740;9.132;2022-07-23T08:25:09;4.43;;;3.47;;
8177;SDS011;4130;48.740;9.132;2022-07-23T08:27:36;4.32;;;3.92;;
8177;SDS011;4130;48.740;9.132;2022-07-23T08:30:03;4.38;;;3.97;;
8177;SDS011;4130;48.740;9.132;2022-07-23T08:32:32;6.72;;;4.00;;
8177;SDS011;4130;48.740;9.132;2022-07-23T08:34:59;4.20;;;3.80;;
8177;SDS011;4130;48.740;9.132;2022-07-23T08:37:26;4.15;;;3.75;;
8177;SDS011;4130;48.740;9.132;2022-07-23T08:39:52;7.07;;;3.72;;
8177;SDS011;4130;48.740;9.132;2022-07-23T08:42:21;4.15;;;3.60;;
8177;SDS011;4130;48.740;9.132;2022-07-23T08:44:48;3.88;;;3.47;;
8177;SDS011;4130;48.740;9.132;2022-07-23T08:47:15;4.38;;;3.83;;
8177;SDS011;4130;48.740;9.132;2022-07-23T08:49:43;3.90;;;3.60;;
8177;SDS011;4130;48.740;9.132;2022-07-23T08:52:12;3.83;;;3.53;;
8177;SDS011;4130;48.740;9.132;2022-07-23T08:54:40;4.22;;;3.75;;
8177;SDS011;4130;48.740;9.132;2022-07-23T08:57:07;3.65;;;3.35;;
8177;SDS011;4130;48.740;9.132;2022-07-23T08:59:34;4.63;;;3.35;;
8177;SDS011;4130;48.740;9.132;2022-07-23T09:02:01;4.28;;;3.60;;
8177;SDS011;4130;48.740;9.132;2022-07-23T09:04:28;5.40;;;3.42;;
8177;SDS011;4130;48.740;9.132;2022-07-23T09:06:56;3.88;;;3.58;;
8177;SDS011;4130;48.740;9.132;2022-07-23T09:09:23;3.70;;;3.40;;
8177;SDS011;4130;48.740;9.132;2022-07-23T09:12:01;3.75;;;3.40;;
8177;SDS011;4130;48.740;9.132;2022-07-23T09:14:36;3.78;;;3.47;;
8177;SDS011;4130;48.740;9.132;2022-07-23T09:17:10;4.03;;;3.53;;
8177;SDS011;4130;48.740;9.132;2022-07-23T09:19:37;3.50;;;3.30;;
8177;SDS011;4130;48.740;9.132;2022-07-23T09:22:18;4.20;;;3.47;;
8177;SDS011;4130;48.740;9.132;2022-07-23T09:25:02;3.78;;;3.38;;
8177;SDS011;4130;48.740;9.132;2022-07-23T09:27:47;3.30;;;3.10;;
8177;SDS011;4130;48.740;9.132;2022-07-23T09:30:20;5.95;;;3.30;;
8177;SDS011;4130;48.740;9.132;2022-07-23T09:33:08;4.72;;;3.17;;
8177;SDS011;4130;48.740;9.132;2022-07-23T09:35:45;3.42;;;3.10;;
8177;SDS011;4130;48.740;9.132;2022-07-23T09:38:17;3.90;;;3.50;;
8177;SDS011;4130;48.740;9.132;2022-07-23T09:40:45;3.35;;;3.05;;
8177;SDS011;4130;48.740;9.132;2022-07-23T09:43:12;3.30;;;3.10;;
8177;SDS011;4130;48.740;9.132;2022-07-23T09:45:51;4.00;;;3.50;;
8177;SDS011;4130;48.740;9.132;2022-07-23T09:48:18;3.75;;;3.45;;
8177;SDS011;4130;48.740;9.132;2022-07-23T09:50:45;3.72;;;3.42;;
8177;SDS011;4130;48.740;9.132;2022-07-23T09:53:16;3.90;;;3.33;;
8177;SDS011;4130;48.740;9.132;2022-07-23T09:55:51;3.55;;;3.22;;
8177;SDS011;4130;48.740;9.132;2022-07-23T09:58:23;3.45;;;3.15;;
8177;SDS011;4130;48.740;9.132;2022-07-23T10:00:52;3.95;;;3.55;;
8177;SDS011;4130;48.740;9.132;2022-07-23T10:03:19;4.07;;;3.67;;
8177;SDS011;4130;48.740;9.132;2022-07-23T10:05:47;4.20;;;3.80;;
8177;SDS011;4130;48.740;9.132;2022-07-23T10:08:14;4.20;;;3.80;;
8177;SDS011;4130;48.740;9.132;2022-07-23T10:10:44;4.20;;;3.80;;
8177;SDS011;4130;48.740;9.132;2022-07-23T10:13:12;3.75;;;3.45;;
8177;SDS011;4130;48.740;9.132;2022-07-23T10:16:03;3.33;;;3.03;;
8177;SDS011;4130;48.740;9.132;2022-07-23T10:18:30;3.55;;;3.13;;
8177;SDS011;4130;48.740;9.132;2022-07-23T10:20:57;4.03;;;3.70;;
8177;SDS011;4130;48.740;9.132;2022-07-23T10:23:27;3.72;;;3.42;;
8177;SDS011;4130;48.740;9.132;2022-07-23T10:26:03;4.50;;;3.58;;
8177;SDS011;4130;48.740;9.132;2022-07-23T10:28:41;3.78;;;3.45;;
8177;SDS011;4130;48.740;9.132;2022-07-23T10:31:20;3.33;;;3.13;;
8177;SDS011;4130;48.740;9.132;2022-07-23T10:33:59;3.67;;;3.38;;
8177;SDS011;4130;48.740;9.132;2022-07-23T10:36:38;3.70;;;3.22;;
8177;SDS011;4130;48.740;9.132;2022-07-23T10:39:12;4.13;;;3.75;;
8177;SDS011;4130;48.740;9.132;2022-07-23T10:41:49;3.72;;;3.45;;
8177;SDS011;4130;48.740;9.132;2022-07-23T10:44:18;5.22;;;3.78;;
8177;SDS011;4130;48.740;9.132;2022-07-23T10:46:55;4.63;;;3.60;;
8177;SDS011;4130;48.740;9.132;2022-07-23T10:49:41;5.70;;;3.78;;
8177;SDS011;4130;48.740;9.132;2022-07-23T10:52:23;5.60;;;3.90;;
8177;SDS011;4130;48.740;9.132;2022-07-23T10:54:52;4.22;;;3.90;;
8177;SDS011;4130;48.740;9.132;2022-07-23T10:57:22;4.88;;;3.60;;
8177;SDS011;4130;48.740;9.132;2022-07-23T11:02:47;4.57;;;3.70;;
8177;SDS011;4130;48.740;9.132;2022-07-23T11:05:17;4.30;;;3.50;;
8177;SDS011;4130;48.740;9.132;2022-07-23T11:10:40;4.05;;;3.67;;
8177;SDS011;4130;48.740;9.132;2022-07-23T11:16:27;3.53;;;3.22;;
8177;SDS011;4130;48.740;9.132;2022-07-23T11:18:58;4.10;;;3.80;;
8177;SDS011;4130;48.740;9.132;2022-07-23T11:21:43;4.00;;;3.70;;
8177;SDS011;4130;48.740;9.132;2022-07-23T11:24:15;3.80;;;3.50;;
8177;SDS011;4130;48.740;9.132;2022-07-23T11:26:44;4.40;;;4.00;;
8177;SDS011;4130;48.740;9.132;2022-07-23T11:32:17;4.28;;;3.60;;
8177;SDS011;4130;48.740;9.132;2022-07-23T11:34:48;4.13;;;3.75;;
8177;SDS011;4130;48.740;9.132;2022-07-23T11:37:26;5.10;;;3.63;;
8177;SDS011;4130;48.740;9.132;2022-07-23T11:39:55;3.72;;;3.42;;
8177;SDS011;4130;48.740;9.132;2022-07-23T11:42:22;3.70;;;3.40;;
8177;SDS011;4130;48.740;9.132;2022-07-23T11:44:49;3.63;;;3.30;;
8177;SDS011;4130;48.740;9.132;2022-07-23T11:47:22;4.10;;;3.80;;
8177;SDS011;4130;48.740;9.132;2022-07-23T11:49:54;4.10;;;3.70;;
8177;SDS011;4130;48.740;9.132;2022-07-23T11:52:23;4.72;;;3.75;;
8177;SDS011;4130;48.740;9.132;2022-07-23T11:54:51;6.20;;;3.92;;
8177;SDS011;4130;48.740;9.132;2022-07-23T11:57:19;3.95;;;3.60;;
8177;SDS011;4130;48.740;9.132;2022-07-23T11:59:47;3.70;;;3.40;;
8177;SDS011;4130;48.740;9.132;2022-07-23T12:02:19;4.05;;;3.70;;
8177;SDS011;4130;48.740;9.132;2022-07-23T12:04:48;4.35;;;3.95;;
8177;SDS011;4130;48.740;9.132;2022-07-23T12:07:29;4.40;;;4.00;;
8177;SDS011;4130;48.740;9.132;2022-07-23T12:09:58;4.05;;;3.75;;
8177;SDS011;4130;48.740;9.132;2022-07-23T12:12:26;3.88;;;3.58;;
8177;SDS011;4130;48.740;9.132;2022-07-23T12:14:54;5.55;;;4.07;;
8177;SDS011;4130;48.740;9.132;2022-07-23T12:17:27;4.60;;;3.88;;
8177;SDS011;4130;48.740;9.132;2022-07-23T12:19:57;6.40;;;3.53;;
8177;SDS011;4130;48.740;9.132;2022-07-23T12:22:26;4.18;;;3.80;;
8177;SDS011;4130;48.740;9.132;2022-07-23T12:25:00;4.13;;;3.70;;
8177;SDS011;4130;48.740;9.132;2022-07-23T12:27:29;4.40;;;3.95;;
8177;SDS011;4130;48.740;9.132;2022-07-23T12:29:56;5.18;;;4.03;;
8177;SDS011;4130;48.740;9.132;2022-07-23T12:32:24;6.13;;;4.43;;
8177;SDS011;4130;48.740;9.132;2022-07-23T12:35:03;4.78;;;3.90;;
8177;SDS011;4130;48.740;9.132;2022-07-23T12:37:32;4.15;;;3.75;;
8177;SDS011;4130;48.740;9.132;2022-07-23T12:40:19;4.10;;;3.80;;
8177;SDS011;4130;48.740;9.132;2022-07-23T12:42:52;4.57;;;3.88;;
8177;SDS011;4130;48.740;9.132;2022-07-23T12:45:20;4.00;;;3.60;;
8177;SDS011;4130;48.740;9.132;2022-07-23T12:47:54;4.30;;;3.90;;
8177;SDS011;4130;48.740;9.132;2022-07-23T12:50:32;4.10;;;3.72;;
8177;SDS011;4130;48.740;9.132;2022-07-23T12:53:02;4.45;;;4.05;;
8177;SDS011;4130;48.740;9.132;2022-07-23T12:55:29;4.35;;;3.95;;
8177;SDS011;4130;48.740;9.132;2022-07-23T12:58:02;4.15;;;3.85;;
8177;SDS011;4130;48.740;9.132;2022-07-23T13:00:31;4.43;;;3.95;;
8177;SDS011;4130;48.740;9.132;2022-07-23T13:02:58;4.00;;;3.67;;
8177;SDS011;4130;48.740;9.132;2022-07-23T13:05:27;4.55;;;4.15;;
8177;SDS011;4130;48.740;9.132;2022-07-23T13:07:57;4.53;;;4.13;;
8177;SDS011;4130;48.740;9.132;2022-07-23T13:10:25;4.97;;;4.40;;
8177;SDS011;4130;48.740;9.132;2022-07-23T13:12:52;4.50;;;4.10;;
8177;SDS011;4130;48.740;9.132;2022-07-23T13:15:19;7.38;;;4.57;;
8177;SDS011;4130;48.740;9.132;2022-07-23T13:17:46;5.95;;;4.32;;
8177;SDS011;4130;48.740;9.132;2022-07-23T13:20:13;4.30;;;4.00;;
8177;SDS011;4130;48.740;9.132;2022-07-23T13:22:40;4.07;;;3.78;;
8177;SDS011;4130;48.740;9.132;2022-07-23T13:25:09;3.90;;;3.50;;
8177;SDS011;4130;48.740;9.132;2022-07-23T13:27:35;4.15;;;3.83;;
8177;SDS011;4130;48.740;9.132;2022-07-23T13:30:02;4.20;;;3.80;;
8177;SDS011;4130;48.740;9.132;2022-07-23T13:32:31;4.03;;;3.70;;
8177;SDS011;4130;48.740;9.132;2022-07-23T13:34:58;4.40;;;4.00;;
8177;SDS011;4130;48.740;9.132;2022-07-23T13:37:24;4.38;;;4.00;;
8177;SDS011;4130;48.740;9.132;2022-07-23T13:39:51;4.63;;;4.22;;
8177;SDS011;4130;48.740;9.132;2022-07-23T13:42:19;4.13;;;3.83;;
8177;SDS011;4130;48.740;9.132;2022-07-23T13:44:46;5.05;;;4.15;;
8177;SDS011;4130;48.740;9.132;2022-07-23T13:47:13;4.28;;;3.97;;
8177;SDS011;4130;48.740;9.132;2022-07-23T13:49:40;4.40;;;4.00;;
8177;SDS011;4130;48.740;9.132;2022-07-23T13:52:07;4.63;;;4.22;;
8177;SDS011;4130;48.740;9.132;2022-07-23T13:54:33;4.78;;;4.25;;
8177;SDS011;4130;48.740;9.132;2022-07-23T13:57:00;5.55;;;4.00;;
8177;SDS011;4130;48.740;9.132;2022-07-23T13:59:29;4.47;;;4.07;;
8177;SDS011;4130;48.740;9.132;2022-07-23T14:01:56;4.93;;;4.50;;
8177;SDS011;4130;48.740;9.132;2022-07-23T14:04:22;4.43;;;4.03;;
8177;SDS011;4130;48.740;9.132;2022-07-23T14:06:49;4.90;;;4.10;;
8177;SDS011;4130;48.740;9.132;2022-07-23T14:09:16;6.25;;;4.68;;
8177;SDS011;4130;48.740;9.132;2022-07-23T14:11:43;6.47;;;4.78;;
8177;SDS011;4130;48.740;9.132;2022-07-23T14:14:09;4.60;;;4.20;;
8177;SDS011;4130;48.740;9.132;2022-07-23T14:16:38;4.80;;;4.10;;
8177;SDS011;4130;48.740;9.132;2022-07-23T14:19:05;6.28;;;3.90;;
8177;SDS011;4130;48.740;9.132;2022-07-23T14:21:31;5.20;;;4.70;;
8177;SDS011;4130;48.740;9.132;2022-07-23T14:23:58;5.18;;;4.30;;
8177;SDS011;4130;48.740;9.132;2022-07-23T14:26:25;4.72;;;4.32;;
8177;SDS011;4130;48.740;9.132;2022-07-23T14:28:52;4.50;;;4.10;;
8177;SDS011;4130;48.740;9.132;2022-07-23T14:31:19;7.38;;;4.78;;
8177;SDS011;4130;48.740;9.132;2022-07-23T14:33:47;5.53;;;4.10;;
8177;SDS011;4130;48.740;9.132;2022-07-23T14:36:15;7.82;;;4.10;;
8177;SDS011;4130;48.740;9.132;2022-07-23T14:38:42;5.32;;;4.55;;
8177;SDS011;4130;48.740;9.132;2022-07-23T14:41:09;4.20;;;3.83;;
8177;SDS011;4130;48.740;9.132;2022-07-23T14:43:37;5.10;;;4.60;;
8177;SDS011;4130;48.740;9.132;2022-07-23T14:46:04;4.50;;;4.10;;
8177;SDS011;4130;48.740;9.132;2022-07-23T14:48:31;4.35;;;3.95;;
8177;SDS011;4130;48.740;9.132;2022-07-23T14:50:59;4.70;;;4.20;;
8177;SDS011;4130;48.740;9.132;2022-07-23T14:53:26;4.60;;;4.20;;
8177;SDS011;4130;48.740;9.132;2022-07-23T14:55:53;5.07;;;4.25;;
8177;SDS011;4130;48.740;9.132;2022-07-23T14:58:21;4.85;;;4.03;;
8177;SDS011;4130;48.740;9.132;2022-07-23T15:00:48;4.40;;;4.00;;
8177;SDS011;4130;48.740;9.132;2022-07-23T15:03:15;4.85;;;4.30;;
8177;SDS011;4130;48.740;9.132;2022-07-23T15:05:42;5.07;;;3.92;;
8177;SDS011;4130;48.740;9.132;2022-07-23T15:08:10;4.40;;;4.10;;
8177;SDS011;4130;48.740;9.132;2022-07-23T15:10:37;4.60;;;4.20;;
8177;SDS011;4130;48.740;9.132;2022-07-23T15:13:04;6.72;;;4.70;;
8177;SDS011;4130;48.740;9.132;2022-07-23T15:15:31;4.72;;;4.20;;
8177;SDS011;4130;48.740;9.132;2022-07-23T15:17:58;4.57;;;4.18;;
8177;SDS011;4130;48.740;9.132;2022-07-23T15:20:27;4.45;;;4.05;;
8177;SDS011;4130;48.740;9.132;2022-07-23T15:22:54;4.88;;;4.43;;
8177;SDS011;4130;48.740;9.132;2022-07-23T15:25:22;4.72;;;4.32;;
8177;SDS011;4130;48.740;9.132;2022-07-23T15:27:49;7.18;;;4.47;;
8177;SDS011;4130;48.740;9.132;2022-07-23T15:30:17;5.03;;;4.50;;
8177;SDS011;4130;48.740;9.132;2022-07-23T15:32:43;4.60;;;4.18;;
8177;SDS011;4130;48.740;9.132;2022-07-23T15:35:10;6.72;;;4.43;;